sensor_id;sensor_type;location;lat;lon;timestamp;P1;durP1;ratioP1;P2;durP2;ratioP2
15968;SDS011;8085;53.472;9.794;2024-02-26T00:01:50;2.13;;;1.85;;
15968;SDS011;8085;53.472;9.794;2024-02-26T00:04:18;2.40;;;1.90;;
15968;SDS011;8085;53.472;9.794;2024-02-26T00:06:46;2.65;;;1.75;;
15968;SDS011;8085;53.472;9.794;2024-02-26T00:09:15;2.40;;;1.98;;
15968;SDS011;8085;53.472;9.794;2024-02-26T00:11:42;2.45;;;1.83;;
15968;SDS011;8085;53.472;9.794;2024-02-26T00:14:09;2.83;;;2.20;;
15968;SDS011;8085;53.472;9.794;2024-02-26T00:16:36;2.53;;;2.08;;
15968;SDS011;8085;53.472;9.794;2024-02-26T00:19:02;3.50;;;2.58;;
15968;SDS011;8085;53.472;9.794;2024-02-26T00:21:31;4.32;;;2.95;;
15968;SDS011;8085;53.472;9.794;2024-02-26T00:23:57;3.45;;;2.53;;
15968;SDS011;8085;53.472;9.794;2024-02-26T00:26:24;3.47;;;2.63;;
15968;SDS011;8085;53.472;9.794;2024-02-26T00:28:51;3.80;;;2.67;;
15968;SDS011;8085;53.472;9.794;2024-02-26T00:31:18;3.45;;;2.75;;
15968;SDS011;8085;53.472;9.794;2024-02-26T00:33:45;3.30;;;2.40;;
15968;SDS011;8085;53.472;9.794;2024-02-26T00:36:11;3.15;;;2.30;;
15968;SDS011;8085;53.472;9.794;2024-02-26T00:38:40;3.15;;;2.60;;
15968;SDS011;8085;53.472;9.794;2024-02-26T00:41:08;3.35;;;2.45;;
15968;SDS011;8085;53.472;9.794;2024-02-26T00:43:34;3.67;;;2.60;;
15968;SDS011;8085;53.472;9.794;2024-02-26T00:46:03;3.53;;;2.58;;
15968;SDS011;8085;53.472;9.794;2024-02-26T00:48:30;2.75;;;2.08;;
15968;SDS011;8085;53.472;9.794;2024-02-26T00:50:56;3.45;;;2.33;;
15968;SDS011;8085;53.472;9.794;2024-02-26T00:53:23;3.88;;;2.80;;
15968;SDS011;8085;53.472;9.794;2024-02-26T00:55:52;3.53;;;2.53;;
15968;SDS011;8085;53.472;9.794;2024-02-26T00:58:19;3.60;;;2.42;;
15968;SDS011;8085;53.472;9.794;2024-02-26T01:00:46;3.38;;;2.42;;
15968;SDS011;8085;53.472;9.794;2024-02-26T01:03:12;2.83;;;2.15;;
15968;SDS011;8085;53.472;9.794;2024-02-26T01:05:39;3.03;;;2.28;;
15968;SDS011;8085;53.472;9.794;2024-02-26T01:08:06;2.78;;;2.30;;
15968;SDS011;8085;53.472;9.794;2024-02-26T01:10:33;4.25;;;2.47;;
15968;SDS011;8085;53.472;9.794;2024-02-26T01:13:01;4.30;;;2.22;;
15968;SDS011;8085;53.472;9.794;2024-02-26T01:15:28;3.85;;;2.67;;
15968;SDS011;8085;53.472;9.794;2024-02-26T01:17:55;3.78;;;3.03;;
15968;SDS011;8085;53.472;9.794;2024-02-26T01:20:22;5.15;;;3.15;;
15968;SDS011;8085;53.472;9.794;2024-02-26T01:22:49;5.65;;;2.92;;
15968;SDS011;8085;53.472;9.794;2024-02-26T01:25:16;3.72;;;2.90;;
15968;SDS011;8085;53.472;9.794;2024-02-26T01:27:43;4.00;;;2.90;;
15968;SDS011;8085;53.472;9.794;2024-02-26T01:30:12;4.20;;;2.95;;
15968;SDS011;8085;53.472;9.794;2024-02-26T01:32:39;3.85;;;3.03;;
15968;SDS011;8085;53.472;9.794;2024-02-26T01:35:06;3.47;;;2.67;;
15968;SDS011;8085;53.472;9.794;2024-02-26T01:37:36;4.20;;;2.80;;
15968;SDS011;8085;53.472;9.794;2024-02-26T01:40:03;4.18;;;2.83;;
15968;SDS011;8085;53.472;9.794;2024-02-26T01:42:32;3.92;;;2.80;;
15968;SDS011;8085;53.472;9.794;2024-02-26T01:44:59;3.20;;;2.72;;
15968;SDS011;8085;53.472;9.794;2024-02-26T01:47:27;3.22;;;2.45;;
15968;SDS011;8085;53.472;9.794;2024-02-26T01:49:55;3.80;;;2.92;;
15968;SDS011;8085;53.472;9.794;2024-02-26T01:52:22;4.18;;;2.78;;
15968;SDS011;8085;53.472;9.794;2024-02-26T01:54:49;3.53;;;2.80;;
15968;SDS011;8085;53.472;9.794;2024-02-26T01:57:17;3.67;;;2.58;;
15968;SDS011;8085;53.472;9.794;2024-02-26T01:59:44;2.95;;;2.22;;
15968;SDS011;8085;53.472;9.794;2024-02-26T02:02:11;3.45;;;2.35;;
15968;SDS011;8085;53.472;9.794;2024-02-26T02:04:40;2.92;;;2.22;;
15968;SDS011;8085;53.472;9.794;2024-02-26T02:07:07;3.58;;;2.20;;
15968;SDS011;8085;53.472;9.794;2024-02-26T02:09:34;2.67;;;2.13;;
15968;SDS011;8085;53.472;9.794;2024-02-26T02:12:01;3.95;;;2.30;;
15968;SDS011;8085;53.472;9.794;2024-02-26T02:14:28;2.97;;;2.45;;
15968;SDS011;8085;53.472;9.794;2024-02-26T02:16:55;2.83;;;2.25;;
15968;SDS011;8085;53.472;9.794;2024-02-26T02:19:22;2.80;;;1.75;;
15968;SDS011;8085;53.472;9.794;2024-02-26T02:21:50;2.38;;;2.08;;
15968;SDS011;8085;53.472;9.794;2024-02-26T02:24:17;2.00;;;1.52;;
15968;SDS011;8085;53.472;9.794;2024-02-26T02:26:44;2.45;;;1.95;;
15968;SDS011;8085;53.472;9.794;2024-02-26T02:29:11;2.67;;;1.83;;
15968;SDS011;8085;53.472;9.794;2024-02-26T02:31:39;2.75;;;2.00;;
15968;SDS011;8085;53.472;9.794;2024-02-26T02:34:06;3.08;;;2.15;;
15968;SDS011;8085;53.472;9.794;2024-02-26T02:36:34;3.08;;;2.10;;
15968;SDS011;8085;53.472;9.794;2024-02-26T02:39:02;2.05;;;1.48;;
15968;SDS011;8085;53.472;9.794;2024-02-26T02:41:29;2.80;;;2.00;;
15968;SDS011;8085;53.472;9.794;2024-02-26T02:43:56;2.40;;;1.80;;
15968;SDS011;8085;53.472;9.794;2024-02-26T02:46:23;2.78;;;1.60;;
15968;SDS011;8085;53.472;9.794;2024-02-26T02:48:50;2.60;;;1.92;;
15968;SDS011;8085;53.472;9.794;2024-02-26T02:51:17;2.22;;;1.85;;
15968;SDS011;8085;53.472;9.794;2024-02-26T02:53:43;2.97;;;2.08;;
15968;SDS011;8085;53.472;9.794;2024-02-26T02:56:12;3.17;;;1.85;;
15968;SDS011;8085;53.472;9.794;2024-02-26T02:58:38;3.03;;;2.00;;
15968;SDS011;8085;53.472;9.794;2024-02-26T03:01:05;3.15;;;1.98;;
15968;SDS011;8085;53.472;9.794;2024-02-26T03:03:32;3.17;;;2.33;;
15968;SDS011;8085;53.472;9.794;2024-02-26T03:05:59;2.30;;;1.77;;
15968;SDS011;8085;53.472;9.794;2024-02-26T03:08:26;3.38;;;1.77;;
15968;SDS011;8085;53.472;9.794;2024-02-26T03:10:52;3.42;;;1.83;;
15968;SDS011;8085;53.472;9.794;2024-02-26T03:13:21;3.22;;;2.10;;
15968;SDS011;8085;53.472;9.794;2024-02-26T03:15:48;3.08;;;2.05;;
15968;SDS011;8085;53.472;9.794;2024-02-26T03:18:14;6.82;;;1.90;;
15968;SDS011;8085;53.472;9.794;2024-02-26T03:20:41;3.40;;;2.25;;
15968;SDS011;8085;53.472;9.794;2024-02-26T03:23:08;3.05;;;2.28;;
15968;SDS011;8085;53.472;9.794;2024-02-26T03:25:37;3.40;;;2.30;;
15968;SDS011;8085;53.472;9.794;2024-02-26T03:28:05;2.83;;;1.90;;
15968;SDS011;8085;53.472;9.794;2024-02-26T03:30:33;3.67;;;2.42;;
15968;SDS011;8085;53.472;9.794;2024-02-26T03:33:00;3.65;;;2.13;;
15968;SDS011;8085;53.472;9.794;2024-02-26T03:35:27;3.20;;;2.35;;
15968;SDS011;8085;53.472;9.794;2024-02-26T03:37:53;3.03;;;2.05;;
15968;SDS011;8085;53.472;9.794;2024-02-26T03:40:20;3.60;;;2.33;;
15968;SDS011;8085;53.472;9.794;2024-02-26T03:42:47;3.20;;;2.38;;
15968;SDS011;8085;53.472;9.794;2024-02-26T03:45:14;3.97;;;2.22;;
15968;SDS011;8085;53.472;9.794;2024-02-26T03:47:42;4.10;;;2.28;;
15968;SDS011;8085;53.472;9.794;2024-02-26T03:50:09;3.58;;;2.42;;
15968;SDS011;8085;53.472;9.794;2024-02-26T03:52:36;2.38;;;1.90;;
15968;SDS011;8085;53.472;9.794;2024-02-26T03:55:03;3.10;;;2.08;;
15968;SDS011;8085;53.472;9.794;2024-02-26T03:57:30;3.95;;;2.08;;
15968;SDS011;8085;53.472;9.794;2024-02-26T03:59:57;3.60;;;2.47;;
15968;SDS011;8085;53.472;9.794;2024-02-26T04:02:24;3.90;;;2.80;;
15968;SDS011;8085;53.472;9.794;2024-02-26T04:04:53;4.30;;;2.88;;
15968;SDS011;8085;53.472;9.794;2024-02-26T04:07:20;4.80;;;3.25;;
15968;SDS011;8085;53.472;9.794;2024-02-26T04:09:47;5.38;;;2.80;;
15968;SDS011;8085;53.472;9.794;2024-02-26T04:12:13;4.13;;;2.75;;
15968;SDS011;8085;53.472;9.794;2024-02-26T04:14:40;4.63;;;3.03;;
15968;SDS011;8085;53.472;9.794;2024-02-26T04:17:07;4.63;;;3.10;;
15968;SDS011;8085;53.472;9.794;2024-02-26T04:19:34;3.95;;;2.47;;
15968;SDS011;8085;53.472;9.794;2024-02-26T04:22:02;3.80;;;2.47;;
15968;SDS011;8085;53.472;9.794;2024-02-26T04:24:29;5.00;;;2.65;;
15968;SDS011;8085;53.472;9.794;2024-02-26T04:26:56;3.55;;;2.63;;
15968;SDS011;8085;53.472;9.794;2024-02-26T04:29:23;4.13;;;2.53;;
15968;SDS011;8085;53.472;9.794;2024-02-26T04:31:49;4.50;;;2.75;;
15968;SDS011;8085;53.472;9.794;2024-02-26T04:34:16;5.05;;;2.67;;
15968;SDS011;8085;53.472;9.794;2024-02-26T04:36:43;4.90;;;2.92;;
15968;SDS011;8085;53.472;9.794;2024-02-26T04:39:11;3.90;;;2.45;;
15968;SDS011;8085;53.472;9.794;2024-02-26T04:41:38;5.20;;;2.90;;
15968;SDS011;8085;53.472;9.794;2024-02-26T04:44:05;4.90;;;2.63;;
15968;SDS011;8085;53.472;9.794;2024-02-26T04:46:32;4.53;;;2.80;;
15968;SDS011;8085;53.472;9.794;2024-02-26T04:48:59;5.53;;;3.00;;
15968;SDS011;8085;53.472;9.794;2024-02-26T04:51:26;5.03;;;2.83;;
15968;SDS011;8085;53.472;9.794;2024-02-26T04:53:53;4.72;;;2.88;;
15968;SDS011;8085;53.472;9.794;2024-02-26T04:56:21;3.60;;;2.47;;
15968;SDS011;8085;53.472;9.794;2024-02-26T04:58:48;4.60;;;2.85;;
15968;SDS011;8085;53.472;9.794;2024-02-26T05:01:15;4.82;;;3.03;;
15968;SDS011;8085;53.472;9.794;2024-02-26T05:03:42;4.20;;;2.92;;
15968;SDS011;8085;53.472;9.794;2024-02-26T05:06:09;5.57;;;3.13;;
15968;SDS011;8085;53.472;9.794;2024-02-26T05:08:36;4.43;;;2.72;;
15968;SDS011;8085;53.472;9.794;2024-02-26T05:11:03;4.15;;;2.50;;
15968;SDS011;8085;53.472;9.794;2024-02-26T05:13:32;5.40;;;2.88;;
15968;SDS011;8085;53.472;9.794;2024-02-26T05:15:59;5.18;;;3.05;;
15968;SDS011;8085;53.472;9.794;2024-02-26T05:18:27;4.00;;;2.67;;
15968;SDS011;8085;53.472;9.794;2024-02-26T05:20:54;5.53;;;2.80;;
15968;SDS011;8085;53.472;9.794;2024-02-26T05:23:21;5.10;;;3.00;;
15968;SDS011;8085;53.472;9.794;2024-02-26T05:25:48;5.30;;;3.17;;
15968;SDS011;8085;53.472;9.794;2024-02-26T05:28:15;8.23;;;3.60;;
15968;SDS011;8085;53.472;9.794;2024-02-26T05:30:44;4.60;;;2.92;;
15968;SDS011;8085;53.472;9.794;2024-02-26T05:33:11;7.78;;;3.47;;
15968;SDS011;8085;53.472;9.794;2024-02-26T05:35:38;5.13;;;2.92;;
15968;SDS011;8085;53.472;9.794;2024-02-26T05:38:06;4.80;;;3.10;;
15968;SDS011;8085;53.472;9.794;2024-02-26T05:40:33;4.93;;;3.15;;
15968;SDS011;8085;53.472;9.794;2024-02-26T05:43:05;5.05;;;3.38;;
15968;SDS011;8085;53.472;9.794;2024-02-26T05:45:32;4.70;;;3.08;;
15968;SDS011;8085;53.472;9.794;2024-02-26T05:48:04;7.25;;;3.50;;
15968;SDS011;8085;53.472;9.794;2024-02-26T05:50:31;4.90;;;2.97;;
15968;SDS011;8085;53.472;9.794;2024-02-26T05:52:58;6.70;;;3.83;;
15968;SDS011;8085;53.472;9.794;2024-02-26T05:55:25;6.55;;;3.53;;
15968;SDS011;8085;53.472;9.794;2024-02-26T05:57:52;6.75;;;3.63;;
15968;SDS011;8085;53.472;9.794;2024-02-26T06:00:19;6.88;;;4.07;;
15968;SDS011;8085;53.472;9.794;2024-02-26T06:02:46;6.70;;;3.92;;
15968;SDS011;8085;53.472;9.794;2024-02-26T06:05:15;6.45;;;3.85;;
15968;SDS011;8085;53.472;9.794;2024-02-26T06:07:42;6.45;;;3.65;;
15968;SDS011;8085;53.472;9.794;2024-02-26T06:10:09;6.97;;;3.80;;
15968;SDS011;8085;53.472;9.794;2024-02-26T06:12:38;6.88;;;3.90;;
15968;SDS011;8085;53.472;9.794;2024-02-26T06:15:05;5.97;;;3.53;;
15968;SDS011;8085;53.472;9.794;2024-02-26T06:17:33;6.63;;;3.72;;
15968;SDS011;8085;53.472;9.794;2024-02-26T06:20:00;6.72;;;3.67;;
15968;SDS011;8085;53.472;9.794;2024-02-26T06:22:29;5.93;;;3.53;;
15968;SDS011;8085;53.472;9.794;2024-02-26T06:24:56;6.72;;;3.90;;
15968;SDS011;8085;53.472;9.794;2024-02-26T06:27:23;6.45;;;3.45;;
15968;SDS011;8085;53.472;9.794;2024-02-26T06:29:50;6.40;;;3.92;;
15968;SDS011;8085;53.472;9.794;2024-02-26T06:32:17;7.72;;;4.00;;
15968;SDS011;8085;53.472;9.794;2024-02-26T06:34:50;8.27;;;4.18;;
15968;SDS011;8085;53.472;9.794;2024-02-26T06:37:17;6.80;;;3.75;;
15968;SDS011;8085;53.472;9.794;2024-02-26T06:39:45;6.82;;;4.45;;
15968;SDS011;8085;53.472;9.794;2024-02-26T06:42:12;10.30;;;4.93;;
15968;SDS011;8085;53.472;9.794;2024-02-26T06:44:38;7.88;;;4.63;;
15968;SDS011;8085;53.472;9.794;2024-02-26T06:47:05;9.00;;;4.10;;
15968;SDS011;8085;53.472;9.794;2024-02-26T06:49:32;8.38;;;4.75;;
15968;SDS011;8085;53.472;9.794;2024-02-26T06:51:59;9.45;;;5.03;;
15968;SDS011;8085;53.472;9.794;2024-02-26T06:54:26;8.82;;;4.78;;
15968;SDS011;8085;53.472;9.794;2024-02-26T06:56:54;9.77;;;5.10;;
15968;SDS011;8085;53.472;9.794;2024-02-26T06:59:21;10.20;;;5.15;;
15968;SDS011;8085;53.472;9.794;2024-02-26T07:01:48;10.63;;;5.30;;
15968;SDS011;8085;53.472;9.794;2024-02-26T07:04:15;13.90;;;6.15;;
15968;SDS011;8085;53.472;9.794;2024-02-26T07:06:42;12.82;;;5.95;;
15968;SDS011;8085;53.472;9.794;2024-02-26T07:09:11;12.85;;;6.32;;
15968;SDS011;8085;53.472;9.794;2024-02-26T07:11:38;12.80;;;6.35;;
15968;SDS011;8085;53.472;9.794;2024-02-26T07:14:08;11.68;;;6.00;;
15968;SDS011;8085;53.472;9.794;2024-02-26T07:16:35;12.98;;;7.25;;
15968;SDS011;8085;53.472;9.794;2024-02-26T07:19:02;12.65;;;6.38;;
15968;SDS011;8085;53.472;9.794;2024-02-26T07:21:29;12.43;;;5.95;;
15968;SDS011;8085;53.472;9.794;2024-02-26T07:23:56;12.75;;;6.70;;
15968;SDS011;8085;53.472;9.794;2024-02-26T07:26:23;12.77;;;6.85;;
15968;SDS011;8085;53.472;9.794;2024-02-26T07:28:51;12.73;;;6.32;;
15968;SDS011;8085;53.472;9.794;2024-02-26T07:31:19;12.00;;;6.78;;
15968;SDS011;8085;53.472;9.794;2024-02-26T07:33:46;13.45;;;7.07;;
15968;SDS011;8085;53.472;9.794;2024-02-26T07:36:13;13.55;;;6.72;;
15968;SDS011;8085;53.472;9.794;2024-02-26T07:38:40;15.10;;;6.82;;
15968;SDS011;8085;53.472;9.794;2024-02-26T07:41:06;13.45;;;6.85;;
15968;SDS011;8085;53.472;9.794;2024-02-26T07:43:33;16.40;;;7.47;;
15968;SDS011;8085;53.472;9.794;2024-02-26T07:46:00;13.80;;;7.32;;
15968;SDS011;8085;53.472;9.794;2024-02-26T07:48:28;13.20;;;6.70;;
15968;SDS011;8085;53.472;9.794;2024-02-26T07:50:55;14.15;;;7.05;;
15968;SDS011;8085;53.472;9.794;2024-02-26T07:53:24;14.95;;;6.82;;
15968;SDS011;8085;53.472;9.794;2024-02-26T07:55:51;14.15;;;7.70;;
15968;SDS011;8085;53.472;9.794;2024-02-26T07:58:18;15.75;;;7.28;;
15968;SDS011;8085;53.472;9.794;2024-02-26T08:00:45;14.75;;;7.13;;
15968;SDS011;8085;53.472;9.794;2024-02-26T08:03:12;16.30;;;7.72;;
15968;SDS011;8085;53.472;9.794;2024-02-26T08:05:42;17.20;;;8.05;;
15968;SDS011;8085;53.472;9.794;2024-02-26T08:08:09;16.75;;;7.85;;
15968;SDS011;8085;53.472;9.794;2024-02-26T08:10:35;14.90;;;7.80;;
15968;SDS011;8085;53.472;9.794;2024-02-26T08:13:02;16.38;;;7.85;;
15968;SDS011;8085;53.472;9.794;2024-02-26T08:15:31;15.75;;;8.00;;
15968;SDS011;8085;53.472;9.794;2024-02-26T08:17:59;15.10;;;7.10;;
15968;SDS011;8085;53.472;9.794;2024-02-26T08:20:27;14.65;;;7.10;;
15968;SDS011;8085;53.472;9.794;2024-02-26T08:22:55;15.23;;;7.80;;
15968;SDS011;8085;53.472;9.794;2024-02-26T08:25:22;16.77;;;7.63;;
15968;SDS011;8085;53.472;9.794;2024-02-26T08:27:49;17.27;;;8.35;;
15968;SDS011;8085;53.472;9.794;2024-02-26T08:30:16;16.70;;;8.57;;
15968;SDS011;8085;53.472;9.794;2024-02-26T08:32:43;16.33;;;8.20;;
15968;SDS011;8085;53.472;9.794;2024-02-26T08:35:11;18.63;;;8.23;;
15968;SDS011;8085;53.472;9.794;2024-02-26T08:37:37;18.50;;;8.88;;
15968;SDS011;8085;53.472;9.794;2024-02-26T08:40:06;20.02;;;8.98;;
15968;SDS011;8085;53.472;9.794;2024-02-26T08:42:33;18.67;;;8.65;;
15968;SDS011;8085;53.472;9.794;2024-02-26T08:45:01;19.73;;;9.35;;
15968;SDS011;8085;53.472;9.794;2024-02-26T08:47:28;18.17;;;8.88;;
15968;SDS011;8085;53.472;9.794;2024-02-26T08:49:55;20.00;;;9.75;;
15968;SDS011;8085;53.472;9.794;2024-02-26T08:52:22;18.65;;;9.48;;
15968;SDS011;8085;53.472;9.794;2024-02-26T08:54:49;23.90;;;9.57;;
15968;SDS011;8085;53.472;9.794;2024-02-26T08:57:17;19.77;;;9.45;;
15968;SDS011;8085;53.472;9.794;2024-02-26T08:59:44;20.02;;;9.77;;
15968;SDS011;8085;53.472;9.794;2024-02-26T09:02:11;22.45;;;10.45;;
15968;SDS011;8085;53.472;9.794;2024-02-26T09:04:38;24.80;;;11.23;;
15968;SDS011;8085;53.472;9.794;2024-02-26T09:07:05;25.60;;;10.07;;
15968;SDS011;8085;53.472;9.794;2024-02-26T09:09:32;23.50;;;10.95;;
15968;SDS011;8085;53.472;9.794;2024-02-26T09:11:59;20.08;;;10.38;;
15968;SDS011;8085;53.472;9.794;2024-02-26T09:14:27;22.45;;;10.13;;
15968;SDS011;8085;53.472;9.794;2024-02-26T09:16:54;20.20;;;9.52;;
15968;SDS011;8085;53.472;9.794;2024-02-26T09:19:21;19.77;;;9.77;;
15968;SDS011;8085;53.472;9.794;2024-02-26T09:21:47;23.65;;;11.25;;
15968;SDS011;8085;53.472;9.794;2024-02-26T09:24:14;27.20;;;12.10;;
15968;SDS011;8085;53.472;9.794;2024-02-26T09:26:41;27.25;;;11.32;;
15968;SDS011;8085;53.472;9.794;2024-02-26T09:29:08;29.25;;;12.38;;
15968;SDS011;8085;53.472;9.794;2024-02-26T09:31:36;28.63;;;12.10;;
15968;SDS011;8085;53.472;9.794;2024-02-26T09:34:05;33.92;;;13.60;;
15968;SDS011;8085;53.472;9.794;2024-02-26T09:36:32;30.90;;;13.18;;
15968;SDS011;8085;53.472;9.794;2024-02-26T09:38:58;27.85;;;12.57;;
15968;SDS011;8085;53.472;9.794;2024-02-26T09:41:26;33.63;;;14.15;;
15968;SDS011;8085;53.472;9.794;2024-02-26T09:43:55;35.33;;;14.35;;
15968;SDS011;8085;53.472;9.794;2024-02-26T09:46:24;38.38;;;15.27;;
15968;SDS011;8085;53.472;9.794;2024-02-26T09:48:53;31.98;;;13.60;;
15968;SDS011;8085;53.472;9.794;2024-02-26T09:51:20;33.78;;;14.20;;
15968;SDS011;8085;53.472;9.794;2024-02-26T09:53:50;37.08;;;15.23;;
15968;SDS011;8085;53.472;9.794;2024-02-26T09:56:18;32.08;;;14.43;;
15968;SDS011;8085;53.472;9.794;2024-02-26T09:58:45;32.13;;;13.50;;
15968;SDS011;8085;53.472;9.794;2024-02-26T10:01:17;30.02;;;13.57;;
15968;SDS011;8085;53.472;9.794;2024-02-26T10:03:44;30.92;;;13.18;;
15968;SDS011;8085;53.472;9.794;2024-02-26T10:06:18;31.05;;;13.20;;
15968;SDS011;8085;53.472;9.794;2024-02-26T10:08:45;30.65;;;13.02;;
15968;SDS011;8085;53.472;9.794;2024-02-26T10:11:14;33.92;;;13.40;;
15968;SDS011;8085;53.472;9.794;2024-02-26T10:13:42;29.98;;;12.95;;
15968;SDS011;8085;53.472;9.794;2024-02-26T10:16:08;33.25;;;14.13;;
15968;SDS011;8085;53.472;9.794;2024-02-26T10:18:45;33.45;;;13.55;;
15968;SDS011;8085;53.472;9.794;2024-02-26T10:21:12;32.40;;;13.15;;
15968;SDS011;8085;53.472;9.794;2024-02-26T10:23:42;25.13;;;12.43;;
15968;SDS011;8085;53.472;9.794;2024-02-26T10:26:10;26.42;;;12.15;;
15968;SDS011;8085;53.472;9.794;2024-02-26T10:28:37;29.63;;;12.57;;
15968;SDS011;8085;53.472;9.794;2024-02-26T10:31:05;24.27;;;11.80;;
15968;SDS011;8085;53.472;9.794;2024-02-26T10:33:32;26.83;;;12.02;;
15968;SDS011;8085;53.472;9.794;2024-02-26T10:36:00;25.50;;;11.35;;
15968;SDS011;8085;53.472;9.794;2024-02-26T10:38:28;22.92;;;11.50;;
15968;SDS011;8085;53.472;9.794;2024-02-26T10:40:56;22.95;;;11.27;;
15968;SDS011;8085;53.472;9.794;2024-02-26T10:43:24;18.50;;;9.90;;
15968;SDS011;8085;53.472;9.794;2024-02-26T10:45:51;24.33;;;11.55;;
15968;SDS011;8085;53.472;9.794;2024-02-26T10:48:20;24.58;;;11.55;;
15968;SDS011;8085;53.472;9.794;2024-02-26T10:50:48;22.08;;;10.38;;
15968;SDS011;8085;53.472;9.794;2024-02-26T10:53:16;24.45;;;11.77;;
15968;SDS011;8085;53.472;9.794;2024-02-26T10:55:46;24.00;;;11.57;;
15968;SDS011;8085;53.472;9.794;2024-02-26T10:58:17;22.85;;;10.13;;
15968;SDS011;8085;53.472;9.794;2024-02-26T11:00:45;21.58;;;10.52;;
15968;SDS011;8085;53.472;9.794;2024-02-26T11:03:13;24.92;;;11.07;;
15968;SDS011;8085;53.472;9.794;2024-02-26T11:05:42;21.70;;;10.77;;
15968;SDS011;8085;53.472;9.794;2024-02-26T11:08:11;20.67;;;10.32;;
15968;SDS011;8085;53.472;9.794;2024-02-26T11:10:38;20.20;;;9.95;;
15968;SDS011;8085;53.472;9.794;2024-02-26T11:13:07;23.85;;;10.98;;
15968;SDS011;8085;53.472;9.794;2024-02-26T11:15:38;27.70;;;11.50;;
15968;SDS011;8085;53.472;9.794;2024-02-26T11:18:06;17.42;;;9.15;;
15968;SDS011;8085;53.472;9.794;2024-02-26T11:20:34;20.55;;;10.02;;
15968;SDS011;8085;53.472;9.794;2024-02-26T11:23:05;18.73;;;9.85;;
15968;SDS011;8085;53.472;9.794;2024-02-26T11:25:34;21.73;;;11.38;;
15968;SDS011;8085;53.472;9.794;2024-02-26T11:28:02;20.13;;;10.07;;
15968;SDS011;8085;53.472;9.794;2024-02-26T11:30:31;21.55;;;10.02;;
15968;SDS011;8085;53.472;9.794;2024-02-26T11:33:02;21.60;;;9.27;;
15968;SDS011;8085;53.472;9.794;2024-02-26T11:35:29;18.63;;;8.93;;
15968;SDS011;8085;53.472;9.794;2024-02-26T11:37:56;17.13;;;8.80;;
15968;SDS011;8085;53.472;9.794;2024-02-26T11:40:26;17.27;;;9.35;;
15968;SDS011;8085;53.472;9.794;2024-02-26T11:42:53;17.88;;;8.95;;
15968;SDS011;8085;53.472;9.794;2024-02-26T11:48:21;19.17;;;8.90;;
15968;SDS011;8085;53.472;9.794;2024-02-26T11:50:49;17.60;;;9.02;;
15968;SDS011;8085;53.472;9.794;2024-02-26T11:53:24;14.90;;;7.90;;
15968;SDS011;8085;53.472;9.794;2024-02-26T11:58:39;16.95;;;8.52;;
15968;SDS011;8085;53.472;9.794;2024-02-26T12:01:06;17.15;;;8.80;;
15968;SDS011;8085;53.472;9.794;2024-02-26T12:03:49;15.80;;;8.40;;
15968;SDS011;8085;53.472;9.794;2024-02-26T12:06:17;16.73;;;8.43;;
15968;SDS011;8085;53.472;9.794;2024-02-26T12:08:45;15.82;;;7.65;;
15968;SDS011;8085;53.472;9.794;2024-02-26T12:11:14;16.58;;;7.90;;
15968;SDS011;8085;53.472;9.794;2024-02-26T12:13:41;14.02;;;7.72;;
15968;SDS011;8085;53.472;9.794;2024-02-26T12:16:09;15.15;;;7.57;;
15968;SDS011;8085;53.472;9.794;2024-02-26T12:18:36;14.63;;;8.02;;
15968;SDS011;8085;53.472;9.794;2024-02-26T12:21:05;14.25;;;7.22;;
15968;SDS011;8085;53.472;9.794;2024-02-26T12:23:31;14.30;;;7.55;;
15968;SDS011;8085;53.472;9.794;2024-02-26T12:25:58;15.65;;;7.45;;
15968;SDS011;8085;53.472;9.794;2024-02-26T12:28:27;14.30;;;7.53;;
15968;SDS011;8085;53.472;9.794;2024-02-26T12:30:54;15.02;;;8.10;;
15968;SDS011;8085;53.472;9.794;2024-02-26T12:33:24;16.33;;;7.90;;
15968;SDS011;8085;53.472;9.794;2024-02-26T12:35:52;15.80;;;8.27;;
15968;SDS011;8085;53.472;9.794;2024-02-26T12:38:20;15.25;;;8.48;;
15968;SDS011;8085;53.472;9.794;2024-02-26T12:40:47;15.35;;;8.25;;
15968;SDS011;8085;53.472;9.794;2024-02-26T12:43:14;14.48;;;7.10;;
15968;SDS011;8085;53.472;9.794;2024-02-26T12:45:42;13.65;;;7.55;;
15968;SDS011;8085;53.472;9.794;2024-02-26T12:48:11;14.88;;;7.65;;
15968;SDS011;8085;53.472;9.794;2024-02-26T12:50:39;12.05;;;7.30;;
15968;SDS011;8085;53.472;9.794;2024-02-26T12:53:06;14.43;;;8.02;;
15968;SDS011;8085;53.472;9.794;2024-02-26T12:55:34;13.63;;;7.43;;
15968;SDS011;8085;53.472;9.794;2024-02-26T12:58:04;16.40;;;8.15;;
15968;SDS011;8085;53.472;9.794;2024-02-26T13:00:31;14.13;;;6.85;;
15968;SDS011;8085;53.472;9.794;2024-02-26T13:02:59;12.85;;;7.20;;
15968;SDS011;8085;53.472;9.794;2024-02-26T13:05:26;10.77;;;7.03;;
15968;SDS011;8085;53.472;9.794;2024-02-26T13:07:53;12.60;;;7.25;;
15968;SDS011;8085;53.472;9.794;2024-02-26T13:10:21;11.43;;;7.10;;
15968;SDS011;8085;53.472;9.794;2024-02-26T13:12:51;13.18;;;7.18;;
15968;SDS011;8085;53.472;9.794;2024-02-26T13:15:18;11.05;;;6.97;;
15968;SDS011;8085;53.472;9.794;2024-02-26T13:17:47;12.23;;;7.00;;
15968;SDS011;8085;53.472;9.794;2024-02-26T13:20:24;13.35;;;7.85;;
15968;SDS011;8085;53.472;9.794;2024-02-26T13:22:59;14.60;;;7.88;;
15968;SDS011;8085;53.472;9.794;2024-02-26T13:25:26;15.82;;;9.35;;
15968;SDS011;8085;53.472;9.794;2024-02-26T13:28:05;16.35;;;8.05;;
15968;SDS011;8085;53.472;9.794;2024-02-26T13:30:33;15.70;;;8.38;;
15968;SDS011;8085;53.472;9.794;2024-02-26T13:33:06;12.70;;;8.02;;
15968;SDS011;8085;53.472;9.794;2024-02-26T13:35:34;13.98;;;8.68;;
15968;SDS011;8085;53.472;9.794;2024-02-26T13:38:01;14.60;;;8.45;;
15968;SDS011;8085;53.472;9.794;2024-02-26T13:40:28;14.15;;;8.18;;
15968;SDS011;8085;53.472;9.794;2024-02-26T13:42:55;15.32;;;8.55;;
15968;SDS011;8085;53.472;9.794;2024-02-26T13:45:23;13.10;;;7.95;;
15968;SDS011;8085;53.472;9.794;2024-02-26T13:47:50;14.38;;;8.55;;
15968;SDS011;8085;53.472;9.794;2024-02-26T13:50:17;16.08;;;8.18;;
15968;SDS011;8085;53.472;9.794;2024-02-26T13:52:46;15.23;;;8.07;;
15968;SDS011;8085;53.472;9.794;2024-02-26T13:55:18;13.55;;;8.63;;
15968;SDS011;8085;53.472;9.794;2024-02-26T13:57:45;13.80;;;7.90;;
15968;SDS011;8085;53.472;9.794;2024-02-26T14:00:13;13.40;;;8.00;;
15968;SDS011;8085;53.472;9.794;2024-02-26T14:02:42;15.57;;;7.50;;
15968;SDS011;8085;53.472;9.794;2024-02-26T14:05:09;13.20;;;7.80;;
15968;SDS011;8085;53.472;9.794;2024-02-26T14:07:35;13.00;;;7.55;;
15968;SDS011;8085;53.472;9.794;2024-02-26T14:10:03;13.10;;;7.47;;
15968;SDS011;8085;53.472;9.794;2024-02-26T14:12:30;13.65;;;7.45;;
15968;SDS011;8085;53.472;9.794;2024-02-26T14:14:57;13.43;;;7.57;;
15968;SDS011;8085;53.472;9.794;2024-02-26T14:17:25;13.50;;;7.65;;
15968;SDS011;8085;53.472;9.794;2024-02-26T14:19:53;15.60;;;7.57;;
15968;SDS011;8085;53.472;9.794;2024-02-26T14:22:20;12.77;;;7.15;;
15968;SDS011;8085;53.472;9.794;2024-02-26T14:24:47;14.32;;;7.65;;
15968;SDS011;8085;53.472;9.794;2024-02-26T14:27:14;12.23;;;7.10;;
15968;SDS011;8085;53.472;9.794;2024-02-26T14:29:42;13.90;;;7.63;;
15968;SDS011;8085;53.472;9.794;2024-02-26T14:32:09;13.75;;;7.32;;
15968;SDS011;8085;53.472;9.794;2024-02-26T14:34:36;14.07;;;7.68;;
15968;SDS011;8085;53.472;9.794;2024-02-26T14:37:04;12.80;;;7.38;;
15968;SDS011;8085;53.472;9.794;2024-02-26T14:39:32;12.63;;;7.28;;
15968;SDS011;8085;53.472;9.794;2024-02-26T14:41:59;12.70;;;7.25;;
15968;SDS011;8085;53.472;9.794;2024-02-26T14:44:26;15.40;;;6.90;;
15968;SDS011;8085;53.472;9.794;2024-02-26T14:46:53;15.05;;;7.80;;
15968;SDS011;8085;53.472;9.794;2024-02-26T14:49:20;12.10;;;7.05;;
15968;SDS011;8085;53.472;9.794;2024-02-26T14:51:47;13.68;;;6.95;;
15968;SDS011;8085;53.472;9.794;2024-02-26T14:54:15;14.48;;;7.57;;
15968;SDS011;8085;53.472;9.794;2024-02-26T14:56:42;16.27;;;7.53;;
15968;SDS011;8085;53.472;9.794;2024-02-26T14:59:08;13.25;;;7.75;;
15968;SDS011;8085;53.472;9.794;2024-02-26T15:01:35;12.35;;;7.22;;